Time;durP1;ratioP1;P1;durP2;ratioP2;P2;SDS_P1;SDS_P2;PMS_P1;PMS_P2;Temp;Humidity;BMP_temperature;BMP_pressure;BME280_temperature;BME280_humidity;BME280_pressure;Samples;Min_cycle;Max_cycle;Signal;HPM_P1;HPM_P2
2021/11/13 00:02:23;;;;;;;16.40;10.07;;;9.00;99.90;;;;;;5074705;28;20444;-84
2021/11/13 00:04:50;;;;;;;15.90;8.50;;;8.90;99.90;;;;;;5075909;28;20532;-82
2021/11/13 00:07:17;;;;;;;13.07;7.40;;;8.90;99.90;;;;;;5070637;28;20538;-84
2021/11/13 00:09:44;;;;;;;16.17;8.50;;;8.90;99.90;;;;;;5059522;28;20490;-83
2021/11/13 00:12:12;;;;;;;15.00;7.90;;;8.80;99.90;;;;;;5056919;28;20452;-83
2021/11/13 00:14:40;;;;;;;15.10;8.40;;;8.70;99.90;;;;;;5054696;28;20457;-83
2021/11/13 00:17:11;;;;;;;14.90;8.87;;;8.70;99.90;;;;;;5052088;28;20484;-83
2021/11/13 00:19:37;;;;;;;15.40;8.53;;;8.70;99.90;;;;;;5055993;28;20514;-83
2021/11/13 00:22:04;;;;;;;19.90;9.47;;;8.70;99.90;;;;;;5054351;28;20455;-82
2021/11/13 00:27:13;;;;;;;14.20;8.90;;;8.70;99.90;;;;;;5208493;22;20583;-83
2021/11/13 00:29:40;;;;;;;14.33;7.80;;;8.70;99.90;;;;;;5044206;28;20961;-83
2021/11/13 00:32:10;;;;;;;14.10;8.17;;;8.80;99.90;;;;;;5047919;28;20448;-83
2021/11/13 00:34:36;;;;;;;16.10;9.37;;;8.70;99.90;;;;;;5056897;28;20453;-84
2021/11/13 00:37:04;;;;;;;14.90;8.13;;;8.70;99.90;;;;;;5055735;28;20472;-83
2021/11/13 00:39:30;;;;;;;14.67;8.70;;;8.80;99.90;;;;;;5055671;28;20466;-83
2021/11/13 00:41:57;;;;;;;14.67;9.03;;;8.80;99.90;;;;;;5056518;28;20459;-83
2021/11/13 00:44:26;;;;;;;16.30;8.03;;;8.80;99.90;;;;;;5057397;28;20525;-83
2021/11/13 00:46:55;;;;;;;13.40;7.67;;;8.80;99.90;;;;;;5045938;28;20847;-83
2021/11/13 00:49:22;;;;;;;14.83;6.43;;;8.90;99.90;;;;;;5057667;28;20539;-82
2021/11/13 00:51:49;;;;;;;15.13;7.80;;;8.90;99.90;;;;;;5042005;28;20468;-82
2021/11/13 00:54:15;;;;;;;13.53;7.67;;;8.90;99.90;;;;;;5054748;28;20887;-83
2021/11/13 00:56:42;;;;;;;13.67;8.13;;;8.80;99.90;;;;;;5060242;28;20483;-82
2021/11/13 00:59:09;;;;;;;16.97;8.73;;;8.80;99.90;;;;;;5060427;28;20467;-83
2021/11/13 01:01:37;;;;;;;15.10;8.33;;;8.80;99.90;;;;;;5050466;28;20441;-83
2021/11/13 01:04:04;;;;;;;13.53;7.43;;;8.90;99.90;;;;;;5060566;28;20483;-84
2021/11/13 01:06:31;;;;;;;14.37;7.70;;;8.90;99.90;;;;;;5063133;28;20468;-84
2021/11/13 01:08:58;;;;;;;14.00;8.80;;;8.90;99.90;;;;;;5054940;28;20913;-84
2021/11/13 01:11:27;;;;;;;16.03;8.33;;;8.90;99.90;;;;;;5062260;28;20544;-84
2021/11/13 01:13:55;;;;;;;11.83;7.13;;;8.90;99.90;;;;;;5066958;28;20539;-83
2021/11/13 01:16:21;;;;;;;12.70;7.50;;;9.00;99.90;;;;;;5058235;28;20831;-84
2021/11/13 01:18:50;;;;;;;13.47;7.87;;;9.00;99.90;;;;;;5055870;28;20551;-84
2021/11/13 01:21:17;;;;;;;15.33;8.27;;;9.00;99.90;;;;;;5058683;28;20505;-83
2021/11/13 01:23:43;;;;;;;14.40;8.00;;;9.10;99.90;;;;;;5066201;28;20463;-84
2021/11/13 01:26:10;;;;;;;11.67;6.50;;;9.00;99.90;;;;;;5065785;28;20532;-80
2021/11/13 01:28:37;;;;;;;13.77;7.30;;;9.10;99.90;;;;;;5062838;28;20437;-84
2021/11/13 01:31:06;;;;;;;12.50;7.20;;;9.10;99.90;;;;;;5069444;28;20452;-84
2021/11/13 01:33:34;;;;;;;10.60;6.70;;;9.00;99.90;;;;;;5049599;28;20457;-83
2021/11/13 01:36:02;;;;;;;17.00;7.13;;;9.00;99.90;;;;;;5057598;28;20560;-83
2021/11/13 01:38:29;;;;;;;14.37;7.37;;;9.00;99.90;;;;;;5056934;28;20454;-84
2021/11/13 01:40:56;;;;;;;14.93;7.60;;;9.00;99.90;;;;;;5046758;28;20460;-82
2021/11/13 01:43:23;;;;;;;10.90;6.30;;;9.10;99.90;;;;;;5054456;28;20461;-83
2021/11/13 01:45:50;;;;;;;13.17;7.63;;;9.10;99.90;;;;;;5052858;28;20558;-83
2021/11/13 01:48:17;;;;;;;14.47;7.43;;;9.00;99.90;;;;;;5059204;28;20456;-82
2021/11/13 01:50:47;;;;;;;14.40;7.00;;;9.10;99.90;;;;;;5048951;28;20449;-83
2021/11/13 01:53:15;;;;;;;13.33;6.83;;;9.00;99.90;;;;;;5057938;28;20464;-81
2021/11/13 01:55:42;;;;;;;14.47;7.93;;;9.10;99.90;;;;;;5047589;28;20483;-81
2021/11/13 01:58:13;;;;;;;12.67;7.47;;;9.10;99.90;;;;;;5060872;28;20952;-81
2021/11/13 02:00:42;;;;;;;13.80;7.53;;;9.20;99.90;;;;;;5062363;28;20465;-81
2021/11/13 02:03:09;;;;;;;13.10;7.37;;;9.10;99.90;;;;;;5059430;28;20467;-81
2021/11/13 02:05:36;;;;;;;12.37;7.70;;;9.10;99.90;;;;;;5063157;28;20484;-82
2021/11/13 02:08:04;;;;;;;15.30;8.07;;;9.10;99.90;;;;;;5054725;28;20461;-82
2021/11/13 02:10:33;;;;;;;12.57;6.43;;;9.10;99.90;;;;;;5055250;28;20452;-82
2021/11/13 02:13:00;;;;;;;14.00;7.50;;;9.10;99.90;;;;;;5051114;28;20454;-84
2021/11/13 02:15:28;;;;;;;17.00;7.50;;;9.10;99.90;;;;;;5063121;28;20474;-81
2021/11/13 02:17:57;;;;;;;11.90;7.73;;;9.20;99.90;;;;;;5052027;28;20457;-82
2021/11/13 02:20:30;;;;;;;13.43;7.80;;;9.10;99.90;;;;;;5049643;28;20544;-82
2021/11/13 02:23:00;;;;;;;16.43;7.30;;;9.10;99.90;;;;;;5056951;28;20488;-82
2021/11/13 02:25:29;;;;;;;16.33;7.80;;;9.20;99.90;;;;;;5051074;28;20496;-82
2021/11/13 02:27:57;;;;;;;11.60;6.50;;;9.10;99.90;;;;;;5061500;28;20448;-82
2021/11/13 02:30:24;;;;;;;15.93;7.77;;;9.10;99.90;;;;;;5054705;28;20546;-82
2021/11/13 02:32:53;;;;;;;15.73;8.00;;;9.10;99.90;;;;;;5062979;28;20455;-82
2021/11/13 02:35:20;;;;;;;15.37;8.53;;;9.10;99.90;;;;;;5056852;28;20467;-83
2021/11/13 02:37:49;;;;;;;13.10;7.33;;;9.10;99.90;;;;;;5061675;28;20453;-84
2021/11/13 02:40:17;;;;;;;14.53;8.37;;;9.10;99.90;;;;;;5062325;28;20448;-84
2021/11/13 02:42:46;;;;;;;12.37;6.87;;;9.20;99.90;;;;;;5064787;28;20445;-84
2021/11/13 02:45:14;;;;;;;14.20;7.27;;;9.20;99.90;;;;;;5064309;28;20488;-84
2021/11/13 02:47:43;;;;;;;14.13;7.57;;;9.20;99.90;;;;;;5065545;28;20539;-83
2021/11/13 02:50:13;;;;;;;18.33;7.40;;;9.20;99.90;;;;;;5064378;28;20448;-84
2021/11/13 02:52:49;;;;;;;16.57;7.87;;;9.20;99.90;;;;;;5064759;28;20455;-85
2021/11/13 02:55:17;;;;;;;15.17;7.97;;;9.20;99.90;;;;;;5062273;28;20479;-84
2021/11/13 02:57:44;;;;;;;13.07;7.27;;;9.30;99.90;;;;;;5062476;28;20462;-84
2021/11/13 03:00:14;;;;;;;15.10;7.70;;;9.20;99.90;;;;;;5064421;28;20525;-84
2021/11/13 03:02:42;;;;;;;16.90;7.93;;;9.20;99.90;;;;;;5068278;28;20460;-84
2021/11/13 03:05:22;;;;;;;12.57;7.20;;;9.20;99.90;;;;;;5065989;28;20558;-84
2021/11/13 03:07:51;;;;;;;15.50;8.70;;;9.30;99.90;;;;;;5062922;28;20451;-83
2021/11/13 03:10:19;;;;;;;15.93;7.90;;;9.30;99.90;;;;;;5062295;28;20888;-82
2021/11/13 03:12:46;;;;;;;13.27;7.77;;;9.20;99.90;;;;;;5054505;28;20457;-83
2021/11/13 03:15:15;;;;;;;12.83;6.97;;;9.10;99.90;;;;;;5065293;28;20476;-84
2021/11/13 03:17:42;;;;;;;14.87;9.10;;;9.00;99.90;;;;;;5062416;28;20440;-84
2021/11/13 03:20:11;;;;;;;13.53;8.27;;;9.00;99.90;;;;;;5063288;28;20446;-84
2021/11/13 03:22:38;;;;;;;19.30;9.00;;;8.90;99.90;;;;;;5059261;28;21005;-84
2021/11/13 03:25:09;;;;;;;21.60;9.30;;;8.80;99.90;;;;;;5053963;28;20480;-84
2021/11/13 03:27:37;;;;;;;18.03;9.40;;;8.80;99.90;;;;;;5059247;28;20976;-83
2021/11/13 03:30:06;;;;;;;18.87;9.47;;;8.70;99.90;;;;;;5064658;28;20534;-82
2021/11/13 03:32:33;;;;;;;16.50;9.10;;;8.60;99.90;;;;;;5074541;28;20436;-82
2021/11/13 03:35:01;;;;;;;19.20;10.17;;;8.50;99.90;;;;;;5075840;28;20484;-82
2021/11/13 03:37:28;;;;;;;18.07;8.53;;;8.40;99.90;;;;;;5066454;28;20460;-83
2021/11/13 03:39:55;;;;;;;21.90;10.37;;;8.40;99.90;;;;;;5062961;28;20906;-82
2021/11/13 03:42:24;;;;;;;19.73;9.37;;;8.30;99.90;;;;;;5062915;28;20456;-83
2021/11/13 03:44:51;;;;;;;15.33;8.77;;;8.30;99.90;;;;;;5065629;28;20484;-83
2021/11/13 03:47:18;;;;;;;21.53;11.00;;;8.30;99.90;;;;;;5064884;28;20452;-82
2021/11/13 03:49:45;;;;;;;22.90;10.80;;;8.30;99.90;;;;;;5060721;28;20479;-85
2021/11/13 03:52:11;;;;;;;16.90;10.10;;;8.20;99.90;;;;;;5060696;28;20563;-82
2021/11/13 03:54:38;;;;;;;17.37;9.13;;;8.20;99.90;;;;;;5060831;28;20452;-82
2021/11/13 03:57:05;;;;;;;19.47;10.93;;;8.20;99.90;;;;;;5060342;28;20490;-82
2021/11/13 03:59:34;;;;;;;18.83;10.97;;;8.20;99.90;;;;;;5060681;28;20448;-82
2021/11/13 04:02:01;;;;;;;22.30;12.20;;;8.10;99.90;;;;;;5056042;28;20584;-81
2021/11/13 04:04:27;;;;;;;17.80;10.23;;;8.10;99.90;;;;;;5057442;28;20456;-81
2021/11/13 04:06:54;;;;;;;21.07;11.30;;;8.10;99.90;;;;;;5054400;28;20486;-81
2021/11/13 04:09:21;;;;;;;21.10;10.20;;;8.00;99.90;;;;;;5069815;28;20439;-80
2021/11/13 04:11:48;;;;;;;24.73;13.60;;;8.00;99.90;;;;;;5074858;28;20475;-80
2021/11/13 04:14:14;;;;;;;25.40;12.33;;;8.00;99.90;;;;;;5073646;28;20432;-80
2021/11/13 04:16:43;;;;;;;18.73;10.63;;;8.00;99.90;;;;;;5065003;28;20457;-80
2021/11/13 04:19:12;;;;;;;18.77;10.53;;;8.10;99.90;;;;;;5075420;28;20461;-82
2021/11/13 04:21:40;;;;;;;23.10;12.10;;;8.20;99.90;;;;;;5060599;28;20440;-82
2021/11/13 04:24:07;;;;;;;20.73;11.80;;;8.10;99.90;;;;;;5051071;28;20540;-82
2021/11/13 04:26:34;;;;;;;18.57;12.17;;;8.10;99.90;;;;;;5058077;28;20880;-82
2021/11/13 04:29:01;;;;;;;18.77;11.40;;;8.10;99.90;;;;;;5057470;28;20463;-82
2021/11/13 04:31:28;;;;;;;18.47;10.80;;;8.10;99.90;;;;;;5057205;28;20455;-82
2021/11/13 04:34:01;;;;;;;16.63;10.60;;;8.10;99.90;;;;;;5057724;28;20510;-82
2021/11/13 04:36:31;;;;;;;16.27;10.10;;;8.10;99.90;;;;;;5044974;28;20479;-82
2021/11/13 04:38:57;;;;;;;16.13;9.97;;;8.20;99.90;;;;;;5038734;28;20449;-81
2021/11/13 04:41:24;;;;;;;19.77;10.50;;;8.20;99.90;;;;;;5054828;28;20508;-81
2021/11/13 04:43:51;;;;;;;21.30;12.50;;;8.20;99.90;;;;;;5055705;28;20463;-82
2021/11/13 04:46:18;;;;;;;25.13;11.43;;;8.10;99.90;;;;;;5054279;28;20485;-82
2021/11/13 04:48:46;;;;;;;14.60;8.83;;;8.20;99.90;;;;;;5057624;28;20452;-82
2021/11/13 04:51:14;;;;;;;20.00;11.13;;;8.20;99.90;;;;;;5053695;28;20974;-81
2021/11/13 04:53:41;;;;;;;22.30;12.77;;;8.20;99.90;;;;;;5055971;28;20542;-81
2021/11/13 04:56:08;;;;;;;19.50;10.90;;;8.30;99.90;;;;;;5058637;28;20468;-81
2021/11/13 04:58:35;;;;;;;19.20;9.77;;;8.30;99.90;;;;;;5059775;28;20456;-81
2021/11/13 05:01:02;;;;;;;18.60;10.40;;;8.30;99.90;;;;;;5059669;28;20547;-83
2021/11/13 05:03:28;;;;;;;16.53;9.53;;;8.30;99.90;;;;;;5064505;28;20524;-80
2021/11/13 05:05:55;;;;;;;18.00;9.40;;;8.40;99.90;;;;;;5065453;28;20476;-81
2021/11/13 05:08:24;;;;;;;18.90;10.30;;;8.40;99.90;;;;;;5066087;28;20452;-80
2021/11/13 05:10:50;;;;;;;17.00;9.83;;;8.40;99.90;;;;;;5060434;28;20539;-80
2021/11/13 05:13:17;;;;;;;14.87;8.93;;;8.40;99.90;;;;;;5059062;28;20455;-80
2021/11/13 05:15:44;;;;;;;15.73;9.00;;;8.30;99.90;;;;;;5057498;28;20490;-80
2021/11/13 05:18:12;;;;;;;15.00;8.33;;;8.40;99.90;;;;;;5056032;28;20457;-80
2021/11/13 05:20:39;;;;;;;13.63;8.60;;;8.40;99.90;;;;;;5055340;28;20844;-79
2021/11/13 05:23:06;;;;;;;13.57;8.50;;;8.50;99.90;;;;;;5056240;28;20460;-80
2021/11/13 05:25:34;;;;;;;16.37;9.03;;;8.40;99.90;;;;;;5055001;28;20499;-80
2021/11/13 05:28:01;;;;;;;12.20;7.37;;;8.40;99.90;;;;;;5056256;28;20455;-80
2021/11/13 05:30:28;;;;;;;16.97;9.90;;;8.40;99.90;;;;;;5054263;28;20452;-80
2021/11/13 05:32:56;;;;;;;14.77;7.97;;;8.40;99.90;;;;;;5053602;28;20445;-80
2021/11/13 05:35:23;;;;;;;13.07;7.70;;;8.40;99.90;;;;;;5053824;28;20473;-83
2021/11/13 05:37:52;;;;;;;15.03;8.30;;;8.40;99.90;;;;;;5054466;28;20463;-80
2021/11/13 05:40:19;;;;;;;14.60;8.57;;;8.40;99.90;;;;;;5062294;28;20459;-79
2021/11/13 05:42:49;;;;;;;14.60;8.70;;;8.50;99.90;;;;;;5067701;28;20820;-80
2021/11/13 05:45:16;;;;;;;14.00;7.77;;;8.40;99.90;;;;;;5054488;28;20477;-81
2021/11/13 05:47:43;;;;;;;53.80;6.90;;;8.50;99.90;;;;;;5059111;28;20444;-80
2021/11/13 05:50:13;;;;;;;19.03;6.90;;;8.40;99.90;;;;;;5058218;28;20502;-81
2021/11/13 05:52:41;;;;;;;10.23;3.60;;;8.40;99.90;;;;;;5059201;28;20924;-80
2021/11/13 05:55:09;;;;;;;79.93;11.87;;;8.50;99.90;;;;;;5058431;28;20475;-80
2021/11/13 05:57:36;;;;;;;11.87;5.73;;;8.50;99.90;;;;;;5057965;28;20448;-80
2021/11/13 06:00:05;;;;;;;13.70;6.17;;;8.50;99.90;;;;;;5059517;28;20448;-80
2021/11/13 06:02:33;;;;;;;9.50;4.60;;;8.40;99.90;;;;;;5058054;28;20445;-80
2021/11/13 06:05:00;;;;;;;9.83;4.27;;;8.50;99.90;;;;;;5058621;28;20468;-80
2021/11/13 06:07:26;;;;;;;12.03;4.00;;;8.50;99.90;;;;;;5058322;28;20524;-83
2021/11/13 06:09:53;;;;;;;10.83;5.30;;;8.60;99.90;;;;;;5058732;28;20444;-80
2021/11/13 06:12:20;;;;;;;13.63;7.27;;;8.60;99.90;;;;;;5057365;28;20457;-80
2021/11/13 06:14:47;;;;;;;12.33;4.70;;;8.60;99.90;;;;;;5054602;28;20453;-79
2021/11/13 06:17:15;;;;;;;10.60;5.07;;;8.60;99.90;;;;;;5058270;28;20768;-80
2021/11/13 06:19:42;;;;;;;12.67;5.17;;;8.50;99.90;;;;;;5058601;28;20540;-80
2021/11/13 06:22:09;;;;;;;13.50;5.33;;;8.50;99.90;;;;;;5057733;28;20871;-79
2021/11/13 06:24:37;;;;;;;9.20;4.30;;;8.60;99.90;;;;;;5057580;28;20452;-79
2021/11/13 06:27:04;;;;;;;10.67;3.93;;;8.50;99.90;;;;;;5056055;28;20487;-80
2021/11/13 06:29:30;;;;;;;11.87;5.63;;;8.60;99.90;;;;;;5051013;28;20462;-79
2021/11/13 06:31:58;;;;;;;10.67;5.80;;;8.50;99.90;;;;;;5056154;28;20459;-80
2021/11/13 06:34:26;;;;;;;11.97;4.17;;;8.50;99.90;;;;;;5056577;28;20547;-80
2021/11/13 06:36:53;;;;;;;9.03;4.10;;;8.50;99.90;;;;;;5055901;28;20471;-80
2021/11/13 06:39:20;;;;;;;10.13;5.43;;;8.40;99.90;;;;;;5058067;28;20450;-80
2021/11/13 06:41:47;;;;;;;11.40;5.53;;;8.40;99.90;;;;;;5042396;28;20460;-81
2021/11/13 06:44:13;;;;;;;9.70;4.07;;;8.40;99.90;;;;;;5052426;28;20457;-81
2021/11/13 06:46:40;;;;;;;14.47;4.20;;;8.50;99.90;;;;;;5049817;28;20490;-80
2021/11/13 06:49:07;;;;;;;11.60;4.83;;;8.40;99.90;;;;;;5052919;28;20453;-79
2021/11/13 06:51:38;;;;;;;31.40;12.30;;;8.40;99.90;;;;;;5046356;28;20442;-81
2021/11/13 06:54:05;;;;;;;12.30;7.03;;;8.40;99.90;;;;;;5044570;28;20467;-84
2021/11/13 06:56:32;;;;;;;12.30;7.57;;;8.30;99.90;;;;;;5045049;28;20465;-82
2021/11/13 06:58:59;;;;;;;11.97;4.50;;;8.40;99.90;;;;;;5043548;28;20886;-82
2021/11/13 07:01:25;;;;;;;9.73;4.10;;;8.40;99.90;;;;;;5043138;28;20474;-82
2021/11/13 07:03:52;;;;;;;8.60;4.10;;;8.40;99.90;;;;;;5041947;28;20456;-82
2021/11/13 07:06:19;;;;;;;14.13;5.17;;;8.40;99.90;;;;;;5046575;28;20485;-82
2021/11/13 07:08:47;;;;;;;10.40;4.77;;;8.50;99.90;;;;;;5043528;28;20454;-85
2021/11/13 07:11:14;;;;;;;9.73;4.47;;;8.40;99.90;;;;;;5048288;28;20527;-81
2021/11/13 07:13:41;;;;;;;8.73;3.60;;;8.50;99.90;;;;;;5045637;28;20544;-81
2021/11/13 07:16:08;;;;;;;8.57;4.40;;;8.50;99.90;;;;;;5051533;28;20851;-79
2021/11/13 07:18:35;;;;;;;10.37;4.03;;;8.60;99.90;;;;;;5047754;28;20447;-80
2021/11/13 07:21:04;;;;;;;8.40;4.00;;;8.70;99.90;;;;;;5044983;28;21035;-79
2021/11/13 07:23:32;;;;;;;9.93;4.10;;;8.60;99.90;;;;;;5047589;28;20454;-81
2021/11/13 07:26:03;;;;;;;12.33;5.90;;;8.70;99.90;;;;;;5051190;28;20492;-81
2021/11/13 07:28:36;;;;;;;11.10;6.40;;;8.70;99.90;;;;;;5050782;28;20441;-80
2021/11/13 07:31:04;;;;;;;9.50;4.80;;;8.70;99.90;;;;;;5051139;28;20520;-81
2021/11/13 07:33:31;;;;;;;11.30;5.43;;;8.70;99.90;;;;;;5045203;28;20448;-80
2021/11/13 07:35:58;;;;;;;9.07;4.87;;;8.80;99.90;;;;;;5044879;28;20469;-80
2021/11/13 07:38:24;;;;;;;10.37;5.13;;;8.80;99.90;;;;;;5045441;28;20916;-81
2021/11/13 07:40:53;;;;;;;10.20;4.83;;;8.80;99.90;;;;;;5048452;28;20461;-81
2021/11/13 07:43:21;;;;;;;10.87;5.20;;;8.80;99.90;;;;;;5054520;28;20452;-81
2021/11/13 07:45:50;;;;;;;11.33;5.00;;;8.90;99.90;;;;;;5067928;28;20532;-81
2021/11/13 07:48:17;;;;;;;8.73;4.43;;;8.90;99.90;;;;;;5045192;28;20437;-79
2021/11/13 07:50:44;;;;;;;8.33;5.40;;;8.90;99.90;;;;;;5044497;28;20537;-80
2021/11/13 07:53:11;;;;;;;12.07;4.87;;;8.80;99.90;;;;;;5044259;28;20486;-79
2021/11/13 07:55:48;;;;;;;11.13;5.37;;;8.90;99.90;;;;;;5044296;28;20477;-80
2021/11/13 07:58:16;;;;;;;8.37;4.40;;;8.90;99.90;;;;;;5040288;28;20452;-81
2021/11/13 08:00:45;;;;;;;9.40;3.93;;;8.90;99.90;;;;;;5044666;28;20449;-80
2021/11/13 08:03:15;;;;;;;8.23;3.80;;;8.90;99.90;;;;;;5047701;28;20834;-80
2021/11/13 08:05:45;;;;;;;9.20;5.00;;;9.00;99.90;;;;;;5043324;28;20481;-81
2021/11/13 08:08:15;;;;;;;8.00;3.97;;;9.00;99.90;;;;;;5044942;28;20484;-80
2021/11/13 08:10:42;;;;;;;11.47;4.63;;;8.90;99.90;;;;;;5045751;28;20459;-80
2021/11/13 08:13:10;;;;;;;7.60;4.10;;;8.90;99.90;;;;;;5043678;28;20583;-79
2021/11/13 08:15:36;;;;;;;9.73;4.70;;;9.10;99.90;;;;;;5047486;28;20477;-81
2021/11/13 08:18:05;;;;;;;10.00;4.50;;;9.10;99.90;;;;;;5053642;28;20456;-81
2021/11/13 08:20:33;;;;;;;9.80;5.43;;;9.20;99.90;;;;;;5051243;28;20440;-79
2021/11/13 08:23:00;;;;;;;12.83;4.10;;;9.10;99.90;;;;;;5054812;28;20455;-81
2021/11/13 08:25:27;;;;;;;9.77;4.90;;;9.20;99.90;;;;;;5048049;28;20517;-80
2021/11/13 08:27:54;;;;;;;9.50;4.23;;;9.20;99.90;;;;;;5042595;28;20485;-81
2021/11/13 08:30:22;;;;;;;8.53;3.97;;;9.30;99.90;;;;;;5050507;28;20463;-80
2021/11/13 08:32:49;;;;;;;9.00;3.70;;;9.40;99.90;;;;;;5056956;28;20459;-80
2021/11/13 08:35:18;;;;;;;10.47;4.60;;;9.50;99.90;;;;;;5061372;28;20472;-81
2021/11/13 08:37:44;;;;;;;10.27;5.33;;;9.60;99.90;;;;;;5051934;28;20513;-80
2021/11/13 08:40:13;;;;;;;1432.93;705.27;;;9.70;99.90;;;;;;5062766;28;20535;-80
2021/11/13 08:42:40;;;;;;;1999.90;999.90;;;9.80;99.90;;;;;;5061256;28;20520;-80
2021/11/13 08:45:08;;;;;;;1999.90;999.90;;;9.80;99.90;;;;;;5052916;28;20483;-81
2021/11/13 08:47:36;;;;;;;1999.90;999.90;;;9.80;99.90;;;;;;5053410;28;20493;-80
2021/11/13 08:50:04;;;;;;;1999.90;999.90;;;10.00;99.90;;;;;;5053339;28;20461;-80
2021/11/13 08:52:33;;;;;;;1999.90;999.90;;;10.00;99.90;;;;;;5053077;28;20455;-80
2021/11/13 08:55:00;;;;;;;1999.90;999.90;;;10.00;99.90;;;;;;5042191;28;20458;-81
2021/11/13 08:57:27;;;;;;;1999.90;999.90;;;10.10;99.90;;;;;;5053137;28;20995;-81
2021/11/13 08:59:54;;;;;;;1999.90;999.90;;;10.10;99.90;;;;;;5053579;28;20450;-81
2021/11/13 09:02:24;;;;;;;1999.90;999.90;;;10.10;99.90;;;;;;5052908;28;20467;-81
2021/11/13 09:04:53;;;;;;;1999.90;999.90;;;10.10;99.90;;;;;;5052760;28;20471;-81
2021/11/13 09:07:20;;;;;;;1999.90;999.90;;;10.10;99.90;;;;;;5052678;28;20484;-81
2021/11/13 09:09:49;;;;;;;1999.90;999.90;;;10.20;99.90;;;;;;5030634;28;20457;-81
2021/11/13 09:12:21;;;;;;;1999.90;999.90;;;10.20;99.90;;;;;;5051316;28;20465;-80
2021/11/13 09:14:50;;;;;;;1999.90;999.90;;;10.30;99.90;;;;;;5045613;28;21023;-81
2021/11/13 09:17:17;;;;;;;1999.90;999.90;;;10.30;99.90;;;;;;5046089;28;20449;-81
2021/11/13 09:19:44;;;;;;;1999.90;999.90;;;10.40;99.90;;;;;;5055631;28;20453;-81
2021/11/13 09:22:11;;;;;;;1999.90;999.90;;;10.40;99.90;;;;;;5046213;28;21018;-81
2021/11/13 09:24:37;;;;;;;87.23;45.93;;;10.60;99.90;;;;;;5056150;28;20449;-82
2021/11/13 09:27:06;;;;;;;65.67;4.40;;;10.70;99.90;;;;;;5050220;28;20502;-82
2021/11/13 09:29:33;;;;;;;65.87;4.53;;;10.80;99.90;;;;;;5054399;28;20455;-82
2021/11/13 09:32:00;;;;;;;65.60;4.63;;;11.10;99.90;;;;;;5046653;28;20443;-82
2021/11/13 09:34:27;;;;;;;65.97;4.80;;;11.30;99.90;;;;;;5047759;28;20461;-81
2021/11/13 09:36:54;;;;;;;65.87;4.63;;;11.50;99.90;;;;;;5048857;28;20476;-81
2021/11/13 09:39:21;;;;;;;65.50;4.40;;;11.80;99.90;;;;;;5052623;28;20844;-81
2021/11/13 09:41:49;;;;;;;65.37;4.77;;;11.80;99.90;;;;;;5035565;28;20449;-81
2021/11/13 09:44:19;;;;;;;65.73;4.40;;;11.90;99.90;;;;;;5050892;28;20904;-79
2021/11/13 09:46:47;;;;;;;65.83;4.53;;;12.00;99.90;;;;;;5054850;28;20494;-79
2021/11/13 09:49:15;;;;;;;65.70;4.60;;;12.30;99.90;;;;;;5068164;28;20520;-80
2021/11/13 09:51:42;;;;;;;66.13;4.53;;;12.50;99.90;;;;;;5049998;28;20477;-80
2021/11/13 09:54:09;;;;;;;65.63;4.70;;;12.10;99.90;;;;;;5054774;28;20454;-79
2021/11/13 09:56:37;;;;;;;66.80;4.70;;;11.90;99.90;;;;;;5046701;28;20474;-81
2021/11/13 09:59:04;;;;;;;65.67;4.87;;;11.70;99.90;;;;;;5047060;28;20462;-80
2021/11/13 10:01:32;;;;;;;66.37;4.90;;;11.80;99.90;;;;;;5044704;28;20466;-79
2021/11/13 10:03:59;;;;;;;65.73;4.60;;;11.70;99.90;;;;;;5045672;28;20479;-79
2021/11/13 10:06:26;;;;;;;66.23;4.60;;;11.70;99.90;;;;;;5053529;28;20842;-79
2021/11/13 10:08:53;;;;;;;66.13;4.70;;;11.70;99.90;;;;;;5053505;28;20461;-80
2021/11/13 10:11:23;;;;;;;66.60;4.77;;;11.80;99.90;;;;;;5044462;28;20467;-80
2021/11/13 10:13:53;;;;;;;68.50;4.53;;;12.00;99.90;;;;;;5047675;28;20448;-79
2021/11/13 10:16:22;;;;;;;67.13;4.50;;;12.10;99.90;;;;;;5048869;28;20555;-80
2021/11/13 10:18:52;;;;;;;66.17;4.40;;;12.20;99.90;;;;;;5053940;28;20448;-79
2021/11/13 10:21:21;;;;;;;65.90;4.70;;;12.10;99.90;;;;;;5052725;28;20455;-80
2021/11/13 10:23:51;;;;;;;66.23;4.73;;;11.90;99.90;;;;;;5053987;28;20458;-77
2021/11/13 10:26:23;;;;;;;65.97;4.33;;;11.90;99.90;;;;;;5049160;28;20490;-78
2021/11/13 10:28:54;;;;;;;67.00;5.07;;;11.70;99.90;;;;;;5052989;28;20493;-76
2021/11/13 10:31:24;;;;;;;70.10;6.00;;;11.70;99.90;;;;;;5044549;28;21162;-78
2021/11/13 10:33:54;;;;;;;72.17;7.23;;;11.50;99.90;;;;;;5047619;28;20463;-79
2021/11/13 10:36:24;;;;;;;72.37;7.03;;;11.50;99.90;;;;;;5052317;28;20479;-78
2021/11/13 10:38:57;;;;;;;71.67;6.80;;;11.70;99.90;;;;;;5037128;28;20452;-78
2021/11/13 10:41:24;;;;;;;71.80;6.97;;;11.80;99.90;;;;;;5031562;28;20474;-78
2021/11/13 10:43:52;;;;;;;71.87;7.10;;;12.10;99.90;;;;;;5050119;28;21006;-79
2021/11/13 10:46:20;;;;;;;72.47;7.03;;;12.30;99.90;;;;;;5042121;28;20484;-78
2021/11/13 10:48:53;;;;;;;72.00;7.37;;;12.30;99.90;;;;;;5037270;28;21000;-78
2021/11/13 10:51:22;;;;;;;72.00;6.70;;;12.40;99.90;;;;;;5050486;28;20451;-78
2021/11/13 10:53:50;;;;;;;71.60;6.27;;;12.40;99.90;;;;;;5051695;28;21007;-78
2021/11/13 10:56:19;;;;;;;71.90;6.90;;;12.40;99.90;;;;;;5050172;28;20569;-78
2021/11/13 10:58:53;;;;;;;71.50;6.70;;;12.40;99.90;;;;;;5044799;28;20505;-77
2021/11/13 11:01:32;;;;;;;71.90;6.77;;;12.40;99.90;;;;;;5046351;28;20460;-78
2021/11/13 11:04:13;;;;;;;71.90;7.13;;;12.50;99.90;;;;;;5041685;28;20529;-78
2021/11/13 11:06:42;;;;;;;72.10;7.00;;;12.40;99.90;;;;;;5046317;28;20486;-80
2021/11/13 11:09:17;;;;;;;72.30;7.10;;;12.30;99.90;;;;;;5053531;28;20537;-79
2021/11/13 11:11:44;;;;;;;71.50;6.43;;;12.20;99.90;;;;;;5049266;28;20448;-79
2021/11/13 11:14:13;;;;;;;71.90;6.57;;;12.10;99.90;;;;;;5050453;28;20536;-80
2021/11/13 11:16:42;;;;;;;71.97;6.60;;;11.90;99.90;;;;;;5056061;28;20493;-80
2021/11/13 11:19:12;;;;;;;72.00;6.80;;;11.80;99.90;;;;;;5053506;28;20447;-78
2021/11/13 11:21:46;;;;;;;72.20;6.97;;;11.80;99.90;;;;;;5047533;28;20879;-79
2021/11/13 11:24:16;;;;;;;72.20;6.80;;;11.80;99.90;;;;;;5046732;28;20451;-81
2021/11/13 11:26:47;;;;;;;72.27;6.90;;;11.80;99.90;;;;;;5053902;28;20486;-79
2021/11/13 11:29:15;;;;;;;72.40;7.13;;;11.70;99.90;;;;;;5047482;28;20491;-79
2021/11/13 11:31:48;;;;;;;71.80;6.83;;;11.80;99.90;;;;;;5053736;28;20451;-80
2021/11/13 11:34:25;;;;;;;72.00;7.00;;;11.80;99.90;;;;;;5054479;28;20527;-79
2021/11/13 11:36:53;;;;;;;72.00;7.03;;;11.90;99.90;;;;;;5058011;28;20481;-79
2021/11/13 11:39:20;;;;;;;110.53;68.30;;;11.90;99.90;;;;;;5072957;28;20519;-80
2021/11/13 11:41:47;;;;;;;1999.90;999.90;;;11.70;99.90;;;;;;5062675;28;20464;-78
2021/11/13 11:44:16;;;;;;;1999.90;999.90;;;11.70;99.90;;;;;;5061651;28;20458;-78
2021/11/13 11:46:43;;;;;;;1999.90;999.90;;;11.80;99.90;;;;;;5064687;28;20475;-79
2021/11/13 11:49:11;;;;;;;1999.90;999.90;;;11.80;99.90;;;;;;5065035;28;20509;-78
2021/11/13 11:51:39;;;;;;;1999.90;999.90;;;11.70;99.90;;;;;;5063641;28;20467;-79
2021/11/13 11:54:08;;;;;;;1999.90;999.90;;;11.70;99.90;;;;;;5063093;28;20538;-78
2021/11/13 11:56:36;;;;;;;1999.90;999.90;;;11.70;99.90;;;;;;5061267;28;20558;-79
2021/11/13 11:59:05;;;;;;;1999.90;999.90;;;11.50;99.90;;;;;;5043230;28;20454;-79
2021/11/13 12:01:33;;;;;;;1999.90;999.90;;;11.50;99.90;;;;;;5047716;28;20455;-79
2021/11/13 12:04:15;;;;;;;1999.90;999.90;;;11.40;99.90;;;;;;5054892;28;20463;-79
2021/11/13 12:06:46;;;;;;;1999.90;999.90;;;11.40;99.90;;;;;;5055490;28;21384;-79
2021/11/13 12:09:13;;;;;;;1999.90;999.90;;;11.40;99.90;;;;;;5045514;28;20497;-79
2021/11/13 12:11:42;;;;;;;1999.90;999.90;;;11.30;99.90;;;;;;5050718;28;20455;-79
2021/11/13 12:14:28;;;;;;;1999.90;999.90;;;11.30;99.90;;;;;;5055163;28;20513;-79
2021/11/13 12:17:32;;;;;;;1999.90;999.90;;;11.20;99.90;;;;;;5040185;28;20520;-79
2021/11/13 12:20:33;;;;;;;1999.90;999.90;;;11.20;99.90;;;;;;5044138;28;20450;-79
2021/11/13 12:23:08;;;;;;;1999.90;999.90;;;11.20;99.90;;;;;;5048222;28;20501;-79
2021/11/13 12:25:37;;;;;;;1999.90;999.90;;;11.20;99.90;;;;;;5053604;28;21014;-80
2021/11/13 12:28:13;;;;;;;1999.90;999.90;;;11.10;99.90;;;;;;5054686;28;20495;-79
2021/11/13 12:30:56;;;;;;;1999.90;999.90;;;11.10;99.90;;;;;;5049267;28;20458;-79
2021/11/13 12:33:45;;;;;;;1999.90;999.90;;;11.00;99.90;;;;;;5040358;28;20459;-79
2021/11/13 12:36:16;;;;;;;1999.90;999.90;;;11.00;99.90;;;;;;5053549;28;20547;-79
2021/11/13 12:38:48;;;;;;;1999.90;999.90;;;11.00;99.90;;;;;;5052631;28;20466;-79
2021/11/13 12:41:17;;;;;;;1999.90;999.90;;;11.00;99.90;;;;;;5047016;28;20454;-78
2021/11/13 12:44:08;;;;;;;1999.90;999.90;;;11.00;99.90;;;;;;5042617;28;20455;-78
2021/11/13 12:46:39;;;;;;;1999.90;999.90;;;11.00;99.90;;;;;;5053157;28;20479;-81
2021/11/13 12:49:36;;;;;;;1999.90;999.90;;;11.00;99.90;;;;;;5048287;28;20577;-78